Observations at @ca for Latest


KACV 280053Z AUTO 24003KT 10SM OVC004 12/11 A3004 RMK AO2 SLP178 T01170106=
KAPC 280054Z 28015KT 10SM CLR 19/12 A2998 RMK AO2 WSHFT 0037 SLP145 T01940117=
KAPC 280101Z 27015KT 10SM CLR 19/11 A2998 RMK AO2 WSHFT 0041 T01890111=
KAVX 280051Z AUTO 26012KT 10SM CLR 14/10 A3000 RMK AO2 SLP153 T01440100=
KBAB 280058Z AUTO 16016KT 10SM SCT180 27/11 A2986 RMK AO2 SLP114 T02660107 $=
KBFL 280054Z 31010KT 8SM CLR 29/08 A2988 RMK AO2 SLP112 T02940078=
KBIH 280056Z AUTO 26014KT 10SM CLR 30/M06 A2983 RMK AO2 SLP053 T03001056=
KBLH 280052Z AUTO 17013KT 10SM CLR 38/02 A2971 RMK AO2 SLP053 T03830022 TSNO=
KBLU 280052Z AUTO 21007KT 10SM CLR 15/07 A3009 RMK AO2 SLP130 T01500067=
KBUR 280053Z 20008KT 10SM CLR 22/11 A2996 RMK AO2 SLP133 T02170111=
KBYS 280058Z AUTO 24018G25KT 10SM CLR 32/M08 A2982 RMK AO2 SLP071 T03241078
 FZRANO $=
KCCR 280053Z 23012KT 10SM CLR 20/10 A2998 RMK AO2 SLP139 T02000100=
KCEC 280056Z AUTO 17005KT 8SM OVC008 13/11 A3005 RMK AO2 CIG 005V011 SLP177
 T01280111=
KCIC 280047Z 14016KT 10SM SCT100 BKN180 27/11 A2986=
KCMA 280055Z 27010KT 10SM FEW025 19/11 A2997 RMK AO2 SLP157 T01890106=
KCNO 280053Z 23012KT 10SM BKN200 24/12 A2995 RMK AO2 SLP137 T02440117=
KCQT 280047Z AUTO 25007KT 10SM CLR 18/12 A2997 RMK AO2 SLP145 T01830117 $=
KCRQ 280053Z VRB03KT 10SM FEW018 18/12 A2997 RMK AO2 SLP147 T01780122=
KDAG 280050Z AUTO 27020G26KT 10SM CLR 33/M02 A2981 RMK AO2 PK WND 26028/0018
 SLP070 T03331022=
KEDW 280058Z 23023G29KT 70SM BKN250 28/00 A2988 RMK AO2A PK WND 24030/21 SLP099
 T02770004=
KEED 280056Z AUTO 19017G24KT 10SM CLR 40/M04 A2972 RMK AO2 SLP027 T04001044=
KEMT 280045Z 23008KT 10SM CLR 21/12 A2996=
KFAT 280053Z 31008KT 10SM SCT200 29/09 A2989 RMK AO2 SLP118 T02940089 $=
KFOT 280055Z AUTO 31007KT 10SM OVC021 13/12 A3003 RMK AO1=
KFUL 280053Z 26009KT 10SM FEW020 BKN250 21/11 A2995 RMK AO2 SLP141 T02110111=
KHHR 280053Z 26013KT 10SM CLR 19/12 A2998 RMK AO2 SLP150 T01940117=
KHJO 280053Z AUTO 34007KT 10SM CLR 30/09 A2989 RMK AO2 SLP121 T03000089=
KHWD 280054Z 29013KT 10SM CLR 17/11 A3001 RMK AO2 SLP173 T01720111=
KIPL 280053Z AUTO 24005KT 10SM CLR 38/02 A2970 RMK AO2 SLP058 T03830017=
KIZA 280055Z AUTO 25013KT 10SM CLR 19/11 A2998 RMK AO2=
KLAX 280053Z 25014KT 10SM FEW021 BKN120 18/12 A2998 RMK AO2 SLP150 T01830117=
KLGB 280053Z 30012KT 10SM CLR 19/11 A2997 RMK AO2 SLP146 T01940111=
KLPC 280056Z AUTO 30010KT 10SM SCT027 18/10 A3001 RMK AO2 SLP163 T01830100=
KLVK 272353Z 29017KT 10SM CLR 21/11 A2998 RMK AO2 SLP150 T02110106 10233 20189
 58011=
KMAE 280053Z AUTO 30010KT 10SM CLR 28/12 A2990 RMK AO2 SLP123 T02830117=
KMCC 280055Z AUTO 19010KT 10SM CLR 26/11 A2990 RMK AO2=
KMCE 280053Z AUTO 32009KT 10SM CLR 28/12 A2989 RMK AO2 SLP122 T02780117=
KMER 280045Z 32011KT 10SM CLR 28/11 A2991=
KMHR 280055Z AUTO 21013KT 10SM CLR 25/11 A2990 RMK A01=
KMHS 280056Z AUTO 00000KT 10SM OVC100 18/02 A2994 RMK AO2 SLP142 T01830017=
KMHV 280040Z AUTO 29014G20KT 10SM 28/04 A2992 RMK A01=
KMMH 272356Z AUTO 27014G27KT 10SM CLR 21/M02 A3010 RMK AO2=
KMMH 280016Z AUTO 28018G30KT 10SM CLR 21/M01 A3010 RMK AO2=
KMMH 280036Z AUTO 29020G30KT 10SM CLR 21/M01 A3010 RMK AO2=
KMOD 280053Z 32011KT 10SM CLR 27/11 A2990 RMK AO2 SLP124 T02670106=
KMRY 280054Z 29008KT 10SM CLR 18/09 A3003 RMK AO2 SLP182 T01780094=
KMYF 280053Z 28007KT 10SM CLR 19/12 A2998 RMK AO2 SLP148 T01940117=
KMYV 280053Z AUTO 16014KT 10SM CLR 27/12 A2987 RMK AO2 SLP118 T02670117=
KNFG 280052Z AUTO 25009KT 10SM CLR 19/12 A2997 RMK AO2 SLP146 T01890122=
KNID 280056Z AUTO 25017G22KT 10SM CLR 34/M02 A2978 RMK AO2 SLP063 T03391017 $=
KNJK 280056Z 27011G16KT 10SM BKN250 38/04 A2972 RMK AO2 SLP080 T03830039 $=
KNKX 280055Z 29007KT 10SM CLR 18/11 A2998 RMK AO2 SLP146 T01830111=
KNLC 280056Z 34009KT 10SM CLR 31/09 A2989 RMK AO2 SLP120 T03060094=
KNLC 280056Z 34009KT 10SM BKN220 31/09 A2989 RMK AO2 SLP120 RH/26 T03060094=
KNRS 280053Z 31009KT 10SM FEW010 FEW025 BKN250 18/11 A3000 RMK AO2 SLP157
 T01830111=
KNSI 280053Z AUTO 27010KT 10SM OVC022 16/11 A3000 RMK AO2 SLP154 T01610106=
KNTD 280052Z 27009KT 9SM FEW028 FEW220 BKN280 18/11 A2999 RMK AO2 SLP156
 T01830111 VISNO N $=
KNUC 280056Z AUTO 29011KT 10SM CLR 17/11 A3001 RMK AO2 SLP160 T01670111 $=
KNUQ 280050Z AUTO 34013G19KT 10SM CLR 20/12 A3000 RMK AO2=
KNXP 280056Z AUTO 22021G28KT 10SM CLR 34/M11 A2987 RMK AO2 PK WND 22031/0012
 SLP076 T03391111=
KNZY 280052Z 29008KT 10SM FEW025 BKN250 19/12 A2998 RMK AO2 SLP151 T01890117=
KOAK 280053Z 29016KT 10SM FEW030 BKN200 17/11 A3002 RMK AO2 SLP167 T01720106=
KOAR 280055Z AUTO 29009G14KT 10SM CLR 15/09 A3003 RMK AO2 PWINO=
KONT 280053Z 24010KT 10SM FEW210 BKN250 23/12 A2994 RMK AO2 SLP129 T02330117=
KOVE 280053Z AUTO 16014KT 10SM CLR 27/12 A2987 RMK AO2 SLP117 T02720117=
KOXR 280051Z 27013KT 10SM FEW018 17/13 A2998 RMK AO2 SLP150 T01720128=
KPAO 280047Z 32015KT 10SM SKC 20/11 A3000=
KPMD 280053Z AUTO 22019G27KT 10SM CLR 27/02 A2992 RMK AO2 PK WND 22027/0033
 SLP107 T02670017=
KPOC 280047Z 25011KT 10SM CLR 23/12 A2996=
KPRB 280053Z AUTO 20018KT 10SM CLR 21/09 A2995 RMK AO2 SLP136 T02060089 $=
KPSP 280053Z 31016G23KT 10SM CLR 36/04 A2976 RMK AO2 PK WND 33026/0023 SLP073
 T03560044 $=
KPTV 280056Z AUTO 10SM CLR 30/10 A2989 RMK AO2 SLP120 T03000100 $=
KRAL 280053Z 27012KT 10SM CLR 23/12 A2993 RMK AO2 SLP123 T02330117=
KRBL 280054Z AUTO 14012KT 10SM BKN090 26/13 A2985 RMK AO2 SLP103 T02610133=
KRDD 280053Z 19006KT 10SM SCT100 27/11 A2983 RMK AO2 SLP098 T02670106=
KRHV 280047Z 33011KT 10SM BKN100 22/11 A2999=
KRIV 280058Z AUTO 31008KT 10SM CLR 24/11 A2995 RMK AO2 SLP134 T02380111 $=
KRNM 280053Z 27009KT 10SM CLR 21/11 A2997 RMK AO2 SLP139 T02060111=
KSAC 280053Z AUTO 21013G21KT 10SM CLR 24/12 A2992 RMK AO2 SLP130 T02390117=
KSAN 280051Z 29008KT 10SM FEW025 BKN250 18/11 A3000 RMK AO2 SLP157 T01780111=
KSBA 280053Z 26010KT 10SM CLR 18/12 A2998 RMK AO2 SLP152 T01780117 $=
KSBD 280054Z 25009KT 5SM HZ CLR 26/08 A2994=
KSBP 280056Z 30012KT 10SM CLR 18/10 A3000 RMK AO2 SLP155 T01830100=
KSCK 280055Z 30012KT 10SM CLR 26/11 A2992 RMK AO2 SLP131 T02610106=
KSDB 280053Z AUTO CLR 19/06 A3006 RMK AO2 SLP133 T01940061 $=
KSDM 280053Z 29006KT 10SM CLR 19/11 A2998 RMK AO2 SLP150 T01890111=
KSEE 280047Z 26008KT 10SM SKC 21/12 A2997=
KSFO 280056Z 29014KT 10SM FEW009 FEW026 BKN200 19/10 A3000 RMK AO2 SLP160
 T01940100=
KSIY 280053Z AUTO 32007KT 10SM OVC110 19/05 A2993 RMK AO2 SLP135 T01940050=
KSJC 280053Z 34012KT 10SM FEW016 BKN100 OVC160 21/12 A2999 RMK AO2 SLP155
 T02110117=
KSLI 280058Z AUTO 22010KT 10SM CLR 20/10 A2994 RMK AO2 SLP142 T02010096=
KSMF 280053Z 20011KT 10SM BKN180 27/12 A2989 RMK AO2 SLP120 T02720117=
KSMO 280051Z 26011KT 10SM CLR 18/12 A2997 RMK AO2 SLP149 T01780117=
KSMX 280051Z 31014KT 10SM FEW030 18/09 A3001 RMK AO2 SLP165 T01780094=
KSNA 280053Z 26007KT 10SM BKN300 20/11 A2997 RMK AO2 SLP147 T02000111=
KSNS 280053Z 30013KT 10SM CLR 18/10 A3002 RMK AO2 SLP175 T01780100=
KSQL 280048Z 26010KT 10SM SCT026 19/10 A3001=
KSTS 280053Z 16011KT 10SM CLR 16/11 A3000 RMK AO2 SLP151 T01610106=
KSUU 280058Z AUTO 24015KT 10SM CLR 22/11 A2994 RMK AO2 PK WND 26029/40 SLP145
 T02230111 $=
KSVE 280055Z AUTO 27010G18KT 10SM SCT110 19/01 A2995 RMK AO2=
KTOA 280050Z 24011KT 10SM FEW025 SCT150 18/12 A2998=
KTRK 280045Z 25011G21KT 10SM CLR 16/M01 A3008=
KTRM 280052Z AUTO 33011KT 10SM CLR 37/04 A2970 RMK AO2 SLP061 T03670044=
KTVL 280053Z AUTO 22011G24KT 190V280 10SM FEW055 16/02 A3008 RMK AO2 SLP147
 T01610022=
KUKI 280056Z AUTO 31009G17KT 10SM CLR 21/09 A2998 RMK AO2 SLP145 T02060094=
KVBG 280058Z AUTO 36010KT 10SM CLR 16/10 A3002 RMK AO2 SLP168 T01630100 $=
KVCV 280050Z AUTO 18017KT 10SM CLR 27/M01 A2995 RMK AO2=
KVIS 280056Z AUTO 31011KT 10SM CLR 29/11 A2989 RMK AO2 SLP126 T02940106=
KVNY 280051Z 13010KT 10SM CLR 22/10 A2994 RMK AO2 SLP132 T02220100=
KWJF 280056Z 25021KT 10SM CLR 25/09 A2992 RMK AO2 SLP119 T02500089=
KWVI 280053Z AUTO 26008KT 10SM CLR 16/10 A3003 RMK AO2 SLP168 T01560100=